Time;durP1;ratioP1;P1;durP2;ratioP2;P2;SDS_P1;SDS_P2;PMS_P1;PMS_P2;Temp;Humidity;BMP_temperature;BMP_pressure;BME280_temperature;BME280_humidity;BME280_pressure;Samples;Min_cycle;Max_cycle;Signal;HPM_P1;HPM_P2
2022/04/26 03:36:28;;;;;;;66.43;45.15;;;27.50;99.90;;;;;;5068178;28;20036;-64
2022/04/26 03:38:55;;;;;;;71.43;44.05;;;27.60;99.90;;;;;;5069906;28;20060;-67
2022/04/26 03:41:21;;;;;;;65.82;42.45;;;27.60;99.90;;;;;;5069404;28;20028;-64
2022/04/26 03:43:48;;;;;;;67.55;44.10;;;27.60;99.90;;;;;;5071297;28;20064;-64
2022/04/26 03:46:15;;;;;;;69.72;42.92;;;27.60;99.90;;;;;;5068139;28;20488;-64
2022/04/26 03:48:41;;;;;;;71.55;45.08;;;27.60;99.90;;;;;;5064643;28;20580;-65
2022/04/26 03:51:08;;;;;;;64.43;42.38;;;27.60;99.90;;;;;;5065256;28;20028;-63
2022/04/26 03:53:35;;;;;;;66.45;43.28;;;27.70;99.90;;;;;;5066075;28;20309;-65
2022/04/26 03:56:01;;;;;;;66.75;43.15;;;27.70;99.90;;;;;;5063667;28;20393;-66
2022/04/26 03:58:29;;;;;;;54.92;39.80;;;27.70;99.90;;;;;;5069827;28;20107;-62
2022/04/26 04:00:56;;;;;;;65.80;43.08;;;27.80;99.90;;;;;;5069037;28;20461;-60
2022/04/26 04:03:23;;;;;;;61.30;40.72;;;27.90;99.90;;;;;;5064525;28;20082;-61
2022/04/26 04:05:50;;;;;;;58.25;40.60;;;27.80;99.90;;;;;;5066636;28;20029;-67
2022/04/26 04:08:16;;;;;;;62.70;42.83;;;27.90;99.90;;;;;;5068243;28;20027;-61
2022/04/26 04:10:43;;;;;;;62.30;41.08;;;27.90;99.90;;;;;;5067963;28;20033;-63
2022/04/26 04:13:10;;;;;;;62.05;39.83;;;28.10;99.90;;;;;;5065954;28;20021;-63
2022/04/26 04:15:37;;;;;;;63.03;40.97;;;28.10;99.90;;;;;;5066709;28;20472;-62
2022/04/26 04:19:17;;;;;;;66.03;40.38;;;28.20;99.90;;;;;;5066029;28;20530;-60
2022/04/26 04:20:52;;;;;;;66.30;42.60;;;28.30;99.90;;;;;;5066018;28;20024;-61
2022/04/26 04:23:19;;;;;;;58.95;37.80;;;28.40;99.90;;;;;;5065480;28;20388;-62
2022/04/26 04:25:46;;;;;;;56.65;36.60;;;28.40;99.90;;;;;;5064126;28;20056;-62
2022/04/26 04:28:12;;;;;;;56.35;37.90;;;28.50;99.90;;;;;;5067437;28;20184;-62
2022/04/26 04:30:39;;;;;;;51.45;34.63;;;28.60;99.90;;;;;;5071043;28;20485;-61
2022/04/26 04:33:06;;;;;;;49.15;33.65;;;28.60;99.90;;;;;;5062717;28;20029;-62
2022/04/26 04:35:32;;;;;;;54.55;35.70;;;28.60;99.90;;;;;;5065775;28;20036;-61
2022/04/26 04:37:59;;;;;;;51.75;33.70;;;28.50;99.90;;;;;;5066144;28;20020;-62
2022/04/26 04:40:26;;;;;;;50.92;34.10;;;28.60;99.90;;;;;;5064944;28;20033;-63
2022/04/26 04:42:52;;;;;;;51.30;33.65;;;28.60;99.90;;;;;;5065879;28;20032;-62
2022/04/26 04:45:19;;;;;;;49.28;32.88;;;28.60;99.90;;;;;;5063896;28;20032;-63
2022/04/26 04:47:46;;;;;;;55.95;34.10;;;28.70;99.90;;;;;;5067794;28;20031;-65
2022/04/26 04:50:12;;;;;;;52.38;33.20;;;28.70;99.90;;;;;;5068361;28;20017;-64
2022/04/26 04:52:40;;;;;;;48.28;32.20;;;28.70;99.90;;;;;;5067367;28;20031;-65
2022/04/26 04:55:07;;;;;;;50.33;32.75;;;28.70;99.90;;;;;;5063226;28;20031;-63
2022/04/26 04:57:33;;;;;;;54.60;36.38;;;28.80;99.90;;;;;;5066164;28;20382;-64
2022/04/26 05:00:04;;;;;;;57.88;38.20;;;28.80;99.90;;;;;;5067322;28;20370;-62
2022/04/26 05:02:31;;;;;;;47.33;32.25;;;28.90;99.90;;;;;;5066120;28;20086;-65
2022/04/26 05:04:58;;;;;;;49.10;31.40;;;29.00;99.90;;;;;;5066991;28;20043;-64
2022/04/26 05:07:25;;;;;;;44.38;27.02;;;28.90;99.90;;;;;;5066797;28;20032;-65
2022/04/26 05:09:52;;;;;;;40.90;26.05;;;28.90;99.90;;;;;;5068079;28;20097;-64
2022/04/26 05:12:19;;;;;;;37.63;25.42;;;28.90;99.90;;;;;;5069625;28;20036;-63
2022/04/26 05:14:46;;;;;;;41.15;27.60;;;29.00;99.90;;;;;;5063287;28;20029;-63
2022/04/26 05:17:12;;;;;;;36.30;24.85;;;29.10;99.90;;;;;;5062814;28;20032;-63
2022/04/26 05:19:39;;;;;;;35.05;23.27;;;29.20;99.90;;;;;;5064733;28;20100;-65
2022/04/26 05:22:09;;;;;;;33.67;23.13;;;29.10;99.90;;;;;;5067641;28;20426;-65
2022/04/26 05:27:10;;;;;;;55.55;33.83;;;29.20;99.90;;;;;;5067329;28;20542;-68
2022/04/26 05:29:36;;;;;;;47.90;29.38;;;29.20;99.90;;;;;;5063736;28;20492;-68
2022/04/26 05:32:03;;;;;;;48.33;31.35;;;29.10;99.90;;;;;;5063180;28;20482;-66
2022/04/26 05:34:30;;;;;;;43.08;31.48;;;29.20;99.90;;;;;;5059980;28;20031;-66
2022/04/26 05:36:58;;;;;;;42.50;29.35;;;29.20;99.90;;;;;;5066468;28;20039;-67
2022/04/26 05:41:51;;;;;;;51.20;30.95;;;29.40;99.90;;;;;;5060111;28;20029;-68
2022/04/26 05:44:18;;;;;;;45.10;32.53;;;29.50;99.90;;;;;;5063131;28;20028;-71
2022/04/26 05:46:44;;;;;;;54.67;33.92;;;29.50;99.90;;;;;;5062910;28;20060;-70
2022/04/26 05:49:11;;;;;;;53.63;34.47;;;29.60;99.90;;;;;;5067013;28;20098;-66
2022/04/26 05:51:38;;;;;;;53.03;32.47;;;29.70;99.90;;;;;;5065826;28;20041;-63
2022/04/26 05:54:04;;;;;;;58.05;36.00;;;29.80;99.90;;;;;;5062164;28;20031;-65
2022/04/26 05:56:31;;;;;;;52.28;33.78;;;29.90;99.90;;;;;;5064338;28;20070;-67
2022/04/26 05:58:58;;;;;;;47.33;32.22;;;29.90;99.90;;;;;;5067308;28;20036;-66
2022/04/26 06:01:24;;;;;;;60.75;37.30;;;30.00;99.90;;;;;;5064948;28;20122;-66
2022/04/26 06:03:51;;;;;;;56.85;34.85;;;30.00;99.90;;;;;;5070329;28;20028;-65
2022/04/26 06:06:17;;;;;;;57.03;36.70;;;30.10;99.90;;;;;;5069683;28;20457;-67
2022/04/26 06:08:44;;;;;;;67.85;40.58;;;30.10;99.90;;;;;;5062533;28;20090;-66
2022/04/26 06:11:11;;;;;;;69.07;41.15;;;30.10;99.90;;;;;;5054849;28;20025;-66
2022/04/26 06:13:39;;;;;;;81.82;43.50;;;30.10;99.90;;;;;;5056303;28;20475;-66
2022/04/26 06:16:06;;;;;;;73.72;41.60;;;30.20;99.90;;;;;;5067756;28;20495;-66
2022/04/26 06:18:33;;;;;;;63.10;38.80;;;30.30;99.90;;;;;;5067018;28;20033;-67
2022/04/26 06:21:01;;;;;;;78.57;43.42;;;30.30;99.90;;;;;;5067318;28;20031;-62
2022/04/26 06:23:27;;;;;;;76.78;43.67;;;30.30;99.90;;;;;;5065290;28;20028;-62
2022/04/26 06:25:54;;;;;;;70.68;44.30;;;30.30;99.90;;;;;;5061418;28;20032;-64
2022/04/26 06:28:21;;;;;;;75.90;43.05;;;30.40;99.90;;;;;;5061725;28;20048;-61
2022/04/26 06:30:47;;;;;;;73.35;41.33;;;30.40;99.90;;;;;;5060896;28;20064;-62
2022/04/26 06:33:14;;;;;;;73.00;42.22;;;30.40;99.90;;;;;;5068145;28;20362;-64
2022/04/26 06:35:41;;;;;;;72.85;42.22;;;30.40;99.90;;;;;;5071323;28;20367;-63
2022/04/26 06:38:07;;;;;;;79.50;45.65;;;30.50;99.90;;;;;;5064836;28;20648;-63
2022/04/26 06:40:34;;;;;;;76.03;42.28;;;30.50;99.90;;;;;;5062612;28;20032;-62
2022/04/26 06:43:01;;;;;;;68.80;40.58;;;30.60;99.90;;;;;;5063455;28;20031;-62
2022/04/26 06:45:28;;;;;;;58.05;36.30;;;30.60;99.90;;;;;;5060727;28;20033;-60
2022/04/26 06:47:54;;;;;;;58.30;37.13;;;30.70;99.90;;;;;;5056681;28;20050;-63
2022/04/26 06:50:22;;;;;;;60.55;36.50;;;30.80;99.90;;;;;;5065912;28;20029;-63
2022/04/26 06:52:49;;;;;;;57.60;35.42;;;31.00;99.90;;;;;;5066327;28;20099;-63
2022/04/26 06:55:16;;;;;;;70.25;41.20;;;31.00;99.90;;;;;;5069819;28;20035;-65
2022/04/26 06:57:43;;;;;;;59.63;37.45;;;31.10;99.90;;;;;;5069956;28;20044;-62
2022/04/26 07:00:10;;;;;;;63.28;38.85;;;31.20;99.90;;;;;;5068266;28;20512;-64
2022/04/26 07:02:37;;;;;;;55.08;38.03;;;31.20;99.90;;;;;;5069108;28;20032;-63
2022/04/26 07:05:04;;;;;;;43.00;30.55;;;31.20;99.90;;;;;;5071017;28;20035;-62
2022/04/26 07:07:31;;;;;;;38.22;25.55;;;31.30;99.90;;;;;;5065242;28;20035;-62
2022/04/26 07:09:57;;;;;;;33.78;24.67;;;31.30;99.90;;;;;;5066249;28;20536;-62
2022/04/26 07:12:24;;;;;;;26.50;20.77;;;31.30;99.90;;;;;;5064806;28;20165;-62
2022/04/26 07:14:51;;;;;;;24.00;19.65;;;31.40;99.90;;;;;;5064153;28;20020;-62
2022/04/26 07:17:18;;;;;;;23.98;18.42;;;31.40;99.90;;;;;;5065359;28;20029;-62
2022/04/26 07:19:45;;;;;;;33.47;21.05;;;31.40;99.90;;;;;;5065059;28;20024;-65
2022/04/26 07:22:11;;;;;;;26.73;20.55;;;31.30;99.90;;;;;;5063578;28;20145;-65
2022/04/26 07:24:38;;;;;;;30.20;21.55;;;31.30;99.90;;;;;;5060241;28;20024;-64
2022/04/26 07:27:05;;;;;;;29.35;21.17;;;31.20;99.90;;;;;;5064705;28;20040;-62
2022/04/26 07:29:32;;;;;;;20.75;15.90;;;31.20;99.90;;;;;;5063632;28;20476;-63
2022/04/26 07:31:59;;;;;;;17.65;13.15;;;31.20;99.90;;;;;;5064132;28;20025;-63
2022/04/26 07:34:26;;;;;;;19.33;15.30;;;31.20;99.90;;;;;;5064191;28;20498;-62
2022/04/26 07:36:57;;;;;;;12.38;11.07;;;31.10;99.90;;;;;;5062775;28;20116;-63
2022/04/26 07:39:24;;;;;;;16.00;11.60;;;31.10;99.90;;;;;;5062263;28;20103;-62
2022/04/26 07:41:51;;;;;;;14.95;12.40;;;31.10;99.90;;;;;;5062854;28;20095;-62
2022/04/26 07:44:19;;;;;;;16.90;12.63;;;31.10;99.90;;;;;;5067012;28;20474;-62
2022/04/26 07:46:47;;;;;;;15.20;11.50;;;31.00;99.90;;;;;;5062100;28;20079;-64
2022/04/26 07:49:16;;;;;;;13.15;11.75;;;31.10;99.90;;;;;;5064113;28;20384;-63
2022/04/26 07:51:43;;;;;;;15.10;12.00;;;31.20;99.90;;;;;;5064888;28;20036;-63
2022/04/26 07:54:11;;;;;;;14.75;11.73;;;31.20;99.90;;;;;;5062721;28;20020;-63
2022/04/26 07:56:38;;;;;;;22.92;16.23;;;31.40;99.90;;;;;;5063493;28;20024;-63
2022/04/26 07:59:05;;;;;;;19.38;12.30;;;31.40;99.90;;;;;;5064483;28;20056;-64
2022/04/26 08:01:33;;;;;;;16.10;11.93;;;31.50;99.90;;;;;;5067583;28;20033;-64
2022/04/26 08:04:00;;;;;;;16.23;11.77;;;31.50;99.90;;;;;;5063348;28;20401;-64
2022/04/26 08:06:27;;;;;;;15.02;10.85;;;31.50;99.90;;;;;;5064906;28;20385;-62
2022/04/26 08:08:55;;;;;;;10.65;9.50;;;31.60;99.90;;;;;;5066232;28;20032;-64
2022/04/26 08:11:22;;;;;;;11.45;9.35;;;31.60;99.90;;;;;;5065395;28;20486;-63
2022/04/26 08:13:49;;;;;;;13.70;9.32;;;31.50;99.90;;;;;;5061378;28;20025;-62
2022/04/26 08:16:17;;;;;;;11.85;8.75;;;31.50;99.90;;;;;;5066504;28;20036;-62
2022/04/26 08:18:43;;;;;;;11.43;8.80;;;31.50;99.90;;;;;;5071427;28;20032;-62
2022/04/26 08:21:14;;;;;;;11.73;8.57;;;31.50;99.90;;;;;;5074852;28;20032;-63
2022/04/26 08:28:57;;;;;;;11.85;9.90;;;31.60;99.90;;;;;;5072756;28;20040;-63
2022/04/26 08:31:24;;;;;;;14.40;10.05;;;31.60;99.90;;;;;;5075340;28;20032;-62
2022/04/26 08:33:50;;;;;;;16.85;10.15;;;31.60;99.90;;;;;;5067775;28;20025;-62
2022/04/26 08:36:18;;;;;;;11.52;8.93;;;31.60;99.90;;;;;;5059004;28;20111;-63
2022/04/26 08:38:45;;;;;;;14.18;8.63;;;31.60;99.90;;;;;;5067569;28;20036;-63
2022/04/26 08:41:15;;;;;;;12.27;6.95;;;31.70;99.90;;;;;;5061647;28;20036;-63
2022/04/26 08:43:41;;;;;;;12.45;8.60;;;31.70;99.90;;;;;;5068587;28;20107;-63
2022/04/26 08:46:08;;;;;;;8.25;7.45;;;31.60;99.90;;;;;;5065111;28;20041;-63
2022/04/26 08:51:14;;;;;;;13.45;8.50;;;31.60;99.90;;;;;;5057755;28;20079;-63
2022/04/26 08:53:42;;;;;;;15.73;9.13;;;31.60;99.90;;;;;;5072984;28;20036;-62
2022/04/26 08:56:08;;;;;;;11.18;8.38;;;31.60;99.90;;;;;;5071087;28;20029;-62
2022/04/26 08:58:35;;;;;;;14.05;8.48;;;31.70;99.90;;;;;;5063314;28;20063;-64
2022/04/26 09:01:16;;;;;;;11.68;8.80;;;31.70;99.90;;;;;;5065052;28;20028;-63
2022/04/26 09:03:59;;;;;;;15.88;9.25;;;31.70;99.90;;;;;;5069194;28;20493;-65
2022/04/26 09:06:43;;;;;;;15.40;7.88;;;31.60;99.90;;;;;;5068431;28;20077;-65
2022/04/26 09:09:21;;;;;;;15.85;8.82;;;31.60;99.90;;;;;;5066160;28;20040;-65
2022/04/26 09:11:50;;;;;;;9.07;7.63;;;31.60;99.90;;;;;;5065549;28;20490;-63
2022/04/26 09:14:23;;;;;;;11.27;7.10;;;31.60;99.90;;;;;;5061434;28;20096;-66
2022/04/26 09:17:04;;;;;;;11.90;7.50;;;31.60;99.90;;;;;;5069780;28;20024;-62
2022/04/26 09:19:50;;;;;;;11.88;7.78;;;31.60;99.90;;;;;;5065993;28;20051;-64
2022/04/26 09:22:20;;;;;;;10.75;8.27;;;31.60;99.90;;;;;;5066958;28;20098;-64
2022/04/26 09:24:58;;;;;;;15.32;10.00;;;31.60;99.90;;;;;;5069046;28;20154;-63
2022/04/26 09:27:26;;;;;;;17.73;9.77;;;31.70;99.90;;;;;;5062705;28;20126;-65
2022/04/26 09:29:52;;;;;;;14.15;8.50;;;31.60;99.70;;;;;;5066283;28;20024;-64
2022/04/26 09:32:20;;;;;;;10.65;7.45;;;31.60;99.90;;;;;;5064848;28;20059;-63
2022/04/26 09:34:46;;;;;;;13.80;7.47;;;31.60;99.90;;;;;;5064563;28;20021;-63
2022/04/26 09:37:13;;;;;;;9.50;7.68;;;31.70;99.50;;;;;;5062025;28;20470;-63
2022/04/26 09:39:41;;;;;;;9.75;8.32;;;31.70;99.90;;;;;;5068293;28;20061;-63
2022/04/26 09:42:08;;;;;;;8.63;6.38;;;31.70;99.90;;;;;;5064209;28;20029;-64
2022/04/26 09:44:40;;;;;;;12.40;8.00;;;31.80;99.90;;;;;;5065100;28;20040;-62
2022/04/26 09:47:06;;;;;;;;;;;31.70;99.40;;;;;;5064819;28;20035;-63
2022/04/26 09:49:37;;;;;;;13.02;8.32;;;31.60;99.10;;;;;;5063755;28;19916;-62
2022/04/26 09:52:08;;;;;;;11.63;8.30;;;31.60;99.50;;;;;;5064969;28;20032;-62
2022/04/26 09:54:37;;;;;;;13.02;8.73;;;31.60;99.90;;;;;;5063702;28;20024;-62
2022/04/26 09:57:06;;;;;;;12.02;9.57;;;31.60;99.90;;;;;;5063786;28;20028;-63
2022/04/26 09:59:38;;;;;;;12.07;8.60;;;31.60;99.90;;;;;;5064071;28;20085;-63
2022/04/26 10:02:08;;;;;;;;;;;31.60;99.90;;;;;;5064815;28;20107;-62
2022/04/26 10:04:43;;;;;;;13.88;9.10;;;31.50;99.70;;;;;;5063252;28;20250;-63
2022/04/26 10:07:14;;;;;;;21.33;11.60;;;31.50;99.90;;;;;;5062379;28;20101;-62
2022/04/26 10:09:45;;;;;;;24.38;16.45;;;31.50;99.90;;;;;;5064421;28;20421;-62
2022/04/26 10:12:12;;;;;;;23.67;16.02;;;31.50;99.70;;;;;;5062660;28;20090;-62
2022/04/26 10:14:40;;;;;;;23.13;14.88;;;31.50;99.90;;;;;;5064287;28;20031;-62
2022/04/26 10:17:07;;;;;;;24.23;15.18;;;31.50;99.90;;;;;;5061239;28;20377;-63
2022/04/26 10:19:39;;;;;;;19.05;11.95;;;31.50;99.90;;;;;;5070256;28;20060;-61
2022/04/26 10:22:08;;;;;;;;;;;31.40;99.90;;;;;;5063509;28;20021;-63
2022/04/26 10:24:36;;;;;;;18.40;11.07;;;31.40;99.90;;;;;;5064476;28;19918;-65
2022/04/26 10:27:20;;;;;;;24.17;14.35;;;31.40;99.90;;;;;;5070531;28;20453;-62
2022/04/26 10:29:47;;;;;;;25.42;14.40;;;31.30;99.90;;;;;;5063053;28;20064;-61
2022/04/26 10:32:30;;;;;;;22.27;13.50;;;31.30;99.90;;;;;;5067485;28;20039;-61
2022/04/26 10:35:17;;;;;;;25.30;12.68;;;31.30;99.90;;;;;;5060352;28;20107;-63
2022/04/26 10:37:44;;;;;;;24.95;10.90;;;31.30;99.90;;;;;;5061415;28;20563;-62
2022/04/26 10:40:12;;;;;;;20.92;11.60;;;31.30;99.90;;;;;;5062937;28;20386;-63
2022/04/26 10:42:39;;;;;;;26.05;14.60;;;31.30;99.90;;;;;;5060767;28;20104;-61
2022/04/26 10:45:10;;;;;;;33.70;20.48;;;31.20;99.90;;;;;;5063616;28;20457;-62
2022/04/26 10:47:39;;;;;;;92.30;68.20;;;31.20;99.90;;;;;;5062348;28;20367;-63
2022/04/26 10:50:06;;;;;;;119.85;103.53;;;31.20;99.90;;;;;;5062631;28;20040;-64
2022/04/26 10:52:36;;;;;;;89.05;67.28;;;31.20;99.90;;;;;;5061300;28;20112;-62
2022/04/26 10:55:07;;;;;;;53.10;31.15;;;31.10;99.90;;;;;;5068838;28;20051;-65
2022/04/26 10:57:39;;;;;;;46.80;27.67;;;31.00;99.90;;;;;;5069809;28;20029;-64
2022/04/26 11:00:10;;;;;;;36.40;21.48;;;31.00;99.90;;;;;;5061124;28;20031;-64
2022/04/26 11:02:40;;;;;;;40.28;20.27;;;30.90;99.90;;;;;;5061530;28;20060;-61
2022/04/26 11:05:18;;;;;;;45.00;27.23;;;30.70;99.90;;;;;;5059616;28;20389;-61
2022/04/26 11:07:47;;;;;;;37.17;23.27;;;30.70;99.90;;;;;;5063877;28;20032;-62
2022/04/26 11:10:16;;;;;;;46.20;25.40;;;30.60;99.90;;;;;;5057072;28;20033;-62
2022/04/26 11:12:43;;;;;;;50.63;31.08;;;30.70;99.90;;;;;;5057163;28;20069;-62
2022/04/26 11:15:19;;;;;;;50.13;34.55;;;30.70;99.90;;;;;;5068480;28;20081;-62
2022/04/26 11:17:47;;;;;;;50.15;30.17;;;30.70;99.90;;;;;;5060715;28;20078;-63
2022/04/26 11:20:20;;;;;;;38.58;24.08;;;30.80;99.90;;;;;;5068804;28;20036;-63
2022/04/26 11:22:52;;;;;;;34.80;22.40;;;30.80;99.90;;;;;;5063468;28;20032;-62
2022/04/26 11:28:06;;;;;;;86.60;56.92;;;30.80;99.90;;;;;;5059869;28;20052;-62
2022/04/26 11:30:36;;;;;;;107.88;70.47;;;30.80;99.90;;;;;;5061061;28;20524;-62
2022/04/26 11:33:06;;;;;;;78.53;48.08;;;30.70;99.90;;;;;;5060869;28;20059;-61
2022/04/26 11:35:34;;;;;;;49.05;32.88;;;30.70;99.90;;;;;;5061922;28;20297;-61
2022/04/26 11:38:12;;;;;;;54.63;31.88;;;30.60;99.90;;;;;;5061725;28;20377;-62
2022/04/26 11:40:41;;;;;;;38.50;24.20;;;30.60;99.90;;;;;;5061087;28;20024;-66
2022/04/26 11:43:13;;;;;;;33.65;21.40;;;30.60;99.90;;;;;;5056560;28;20103;-64
2022/04/26 11:45:44;;;;;;;36.92;22.00;;;30.60;99.90;;;;;;5062255;28;20028;-63
2022/04/26 11:48:13;;;;;;;37.95;22.10;;;30.70;99.90;;;;;;5061929;28;20021;-63
2022/04/26 11:50:41;;;;;;;44.20;23.35;;;30.60;99.90;;;;;;5072097;28;20056;-64
2022/04/26 11:53:10;;;;;;;37.22;24.17;;;30.60;99.90;;;;;;5072323;28;20419;-63
2022/04/26 11:55:39;;;;;;;35.15;23.08;;;30.60;99.90;;;;;;5070345;28;20028;-64
2022/04/26 11:58:10;;;;;;;36.30;23.08;;;30.60;99.90;;;;;;5069579;28;20036;-62
2022/04/26 12:00:59;;;;;;;65.78;32.10;;;30.50;99.90;;;;;;5070529;28;20036;-64
2022/04/26 12:03:53;;;;;;;63.58;30.92;;;30.40;99.90;;;;;;5071305;28;20028;-64
2022/04/26 12:06:31;;;;;;;58.50;29.35;;;30.40;99.90;;;;;;5071513;28;20095;-64
2022/04/26 12:09:01;;;;;;;60.55;34.05;;;30.30;99.90;;;;;;5069728;28;20082;-64
2022/04/26 12:11:32;;;;;;;57.08;30.55;;;30.30;99.90;;;;;;5072705;28;20094;-60
2022/04/26 12:14:02;;;;;;;39.03;25.92;;;30.30;99.90;;;;;;5067736;28;20037;-62
2022/04/26 12:16:31;;;;;;;31.52;21.77;;;30.30;99.90;;;;;;5068349;28;20032;-64
2022/04/26 12:19:00;;;;;;;36.75;23.55;;;30.30;99.90;;;;;;5064862;28;20024;-62
2022/04/26 12:21:28;;;;;;;31.67;22.20;;;30.30;99.90;;;;;;5070351;28;20029;-64
2022/04/26 12:24:02;;;;;;;36.70;22.13;;;30.30;99.90;;;;;;5069784;28;20040;-63
2022/04/26 12:26:28;;;;;;;37.40;20.83;;;30.10;99.90;;;;;;5066526;28;20150;-63
2022/04/26 12:28:55;;;;;;;35.33;21.13;;;30.10;99.90;;;;;;5046558;28;20443;-63
2022/04/26 12:31:29;;;;;;;42.28;23.27;;;30.10;99.90;;;;;;5065349;28;20032;-64
2022/04/26 12:34:15;;;;;;;40.90;24.58;;;30.20;99.90;;;;;;5065096;28;20052;-63
2022/04/26 12:36:48;;;;;;;40.78;24.80;;;30.10;99.90;;;;;;5066263;28;20113;-62
2022/04/26 12:39:15;;;;;;;40.97;23.30;;;30.20;99.90;;;;;;5070097;28;20028;-63
2022/04/26 12:41:47;;;;;;;39.85;23.55;;;30.20;99.90;;;;;;5074920;28;20040;-63
2022/04/26 12:44:13;;;;;;;52.67;30.70;;;30.20;99.90;;;;;;5065537;28;20024;-61
2022/04/26 12:46:46;;;;;;;69.40;45.05;;;30.20;99.90;;;;;;5065274;28;20032;-65
2022/04/26 12:51:54;;;;;;;44.47;27.50;;;30.10;99.90;;;;;;5075673;28;20052;-63
2022/04/26 12:54:20;;;;;;;75.15;37.42;;;30.10;99.90;;;;;;5072856;28;20029;-65
2022/04/26 12:56:54;;;;;;;68.57;38.40;;;30.10;99.90;;;;;;5069942;28;20113;-65
2022/04/26 12:59:21;;;;;;;70.45;40.38;;;30.00;99.90;;;;;;5075786;28;20025;-66
2022/04/26 13:01:48;;;;;;;91.13;45.95;;;30.10;99.90;;;;;;5076975;28;20051;-63
2022/04/26 13:04:15;;;;;;;96.10;49.10;;;30.00;99.90;;;;;;5076707;28;20083;-64
2022/04/26 13:06:44;;;;;;;85.13;51.35;;;30.00;99.90;;;;;;5075767;28;20558;-63
2022/04/26 13:09:11;;;;;;;87.97;51.92;;;30.00;99.90;;;;;;5075860;28;20366;-65
2022/04/26 13:11:39;;;;;;;87.30;51.45;;;30.00;99.90;;;;;;5074865;28;20048;-63
2022/04/26 13:14:05;;;;;;;89.50;51.92;;;30.00;99.90;;;;;;5067175;28;20025;-63
2022/04/26 13:16:32;;;;;;;125.70;74.40;;;30.00;99.90;;;;;;5071575;28;20098;-63
2022/04/26 13:18:59;;;;;;;173.63;108.68;;;29.90;99.90;;;;;;5064152;28;20049;-63
2022/04/26 13:21:27;;;;;;;170.98;111.15;;;29.90;99.90;;;;;;5071339;28;20031;-63
2022/04/26 13:23:57;;;;;;;167.07;109.05;;;29.90;99.90;;;;;;5073848;28;20036;-62
2022/04/26 13:26:25;;;;;;;170.32;117.35;;;29.90;99.90;;;;;;5076857;28;20025;-65
2022/04/26 13:28:52;;;;;;;125.20;80.53;;;29.90;99.90;;;;;;5073775;28;20048;-63
2022/04/26 13:31:18;;;;;;;96.97;60.83;;;29.90;99.90;;;;;;5062224;28;20025;-64
2022/04/26 13:33:45;;;;;;;83.43;47.90;;;29.90;99.90;;;;;;5073143;28;20480;-64
2022/04/26 13:36:12;;;;;;;77.50;47.00;;;29.90;99.90;;;;;;5062047;28;20466;-62
2022/04/26 13:38:39;;;;;;;78.45;47.00;;;29.90;99.90;;;;;;5073173;28;20099;-63
2022/04/26 13:41:06;;;;;;;75.75;46.97;;;29.90;99.90;;;;;;5045556;28;20233;-63
2022/04/26 13:43:32;;;;;;;81.10;47.97;;;29.90;99.90;;;;;;5059103;28;20288;-62
2022/04/26 13:45:59;;;;;;;69.80;42.55;;;29.90;99.90;;;;;;5069739;28;20029;-63
2022/04/26 13:48:26;;;;;;;67.55;39.05;;;29.90;99.90;;;;;;5065162;28;20066;-63
2022/04/26 13:50:52;;;;;;;54.92;34.58;;;29.90;99.90;;;;;;5075038;28;20074;-62
2022/04/26 13:53:19;;;;;;;55.75;34.42;;;29.90;99.90;;;;;;5059134;28;20025;-63
2022/04/26 13:55:46;;;;;;;56.50;34.92;;;29.90;99.90;;;;;;5070891;28;20029;-62
2022/04/26 13:58:12;;;;;;;53.58;34.60;;;29.70;99.90;;;;;;5063150;28;20025;-63
2022/04/26 14:00:39;;;;;;;59.28;35.42;;;29.60;99.90;;;;;;5063318;28;20533;-63
2022/04/26 14:03:06;;;;;;;60.38;35.33;;;29.70;99.90;;;;;;5065383;28;20084;-65
2022/04/26 14:05:34;;;;;;;59.90;36.88;;;29.70;99.90;;;;;;5070702;28;20032;-62
2022/04/26 14:08:01;;;;;;;67.30;38.33;;;29.60;99.90;;;;;;5061619;28;20388;-63
2022/04/26 14:10:28;;;;;;;61.33;41.03;;;29.60;99.90;;;;;;5068760;28;20035;-64
2022/04/26 14:12:55;;;;;;;78.07;43.08;;;29.60;99.90;;;;;;5070207;28;20032;-62
2022/04/26 14:23:22;;;;;;;85.03;52.50;;;29.60;99.90;;;;;;5071807;28;20056;-64
2022/04/26 14:25:50;;;;;;;81.63;47.55;;;29.60;99.90;;;;;;5072951;28;20029;-63
2022/04/26 14:28:17;;;;;;;79.18;48.22;;;29.50;99.90;;;;;;5069130;28;20036;-63
2022/04/26 14:30:44;;;;;;;75.93;47.47;;;29.50;99.90;;;;;;5062523;28;20029;-62
2022/04/26 14:33:11;;;;;;;76.07;46.53;;;29.50;99.90;;;;;;5061794;28;20029;-63
2022/04/26 14:35:37;;;;;;;77.70;48.33;;;29.50;99.90;;;;;;5067991;28;20032;-65
2022/04/26 14:38:04;;;;;;;77.80;48.80;;;29.50;99.90;;;;;;5074708;28;20025;-64
2022/04/26 14:40:32;;;;;;;78.82;48.08;;;29.50;99.90;;;;;;5069357;28;20047;-63
2022/04/26 14:42:59;;;;;;;77.03;47.30;;;29.50;99.90;;;;;;5066338;28;20032;-62
2022/04/26 14:45:26;;;;;;;76.18;44.97;;;29.50;99.90;;;;;;5060390;28;20115;-62
2022/04/26 14:47:52;;;;;;;75.25;43.42;;;29.40;99.90;;;;;;5068451;28;20033;-63
2022/04/26 14:50:20;;;;;;;78.78;47.92;;;29.40;99.90;;;;;;5061359;28;20027;-64
2022/04/26 14:52:46;;;;;;;72.13;45.70;;;29.40;99.90;;;;;;5070297;28;20107;-63
2022/04/26 14:55:13;;;;;;;75.55;46.60;;;29.40;99.90;;;;;;5070996;28;20025;-61
2022/04/26 14:57:40;;;;;;;68.20;41.63;;;29.30;99.90;;;;;;5071325;28;20487;-63
2022/04/26 15:00:08;;;;;;;62.40;40.53;;;29.20;99.90;;;;;;5067755;28;20381;-62
2022/04/26 15:02:38;;;;;;;65.38;42.28;;;29.20;99.90;;;;;;5065032;28;20028;-63
2022/04/26 15:05:10;;;;;;;60.90;37.30;;;29.30;99.90;;;;;;5070355;28;20036;-63
2022/04/26 15:10:16;;;;;;;61.75;36.90;;;29.30;99.90;;;;;;5062737;28;20017;-63
2022/04/26 15:18:08;;;;;;;47.67;28.05;;;29.30;99.90;;;;;;5054395;28;20040;-63
2022/04/26 15:20:35;;;;;;;48.00;27.17;;;29.30;99.90;;;;;;5065084;28;20028;-62
2022/04/26 15:23:03;;;;;;;40.05;25.52;;;29.20;99.90;;;;;;5059740;28;20025;-62
2022/04/26 15:25:32;;;;;;;43.35;27.25;;;29.20;99.90;;;;;;5071115;28;20498;-62
2022/04/26 15:27:58;;;;;;;46.42;28.17;;;29.20;99.90;;;;;;5059441;28;20043;-62
2022/04/26 15:30:25;;;;;;;63.72;38.13;;;29.20;99.90;;;;;;5070430;28;20107;-63
2022/04/26 15:32:52;;;;;;;57.97;38.60;;;29.10;99.90;;;;;;5074627;28;20078;-60
2022/04/26 15:35:19;;;;;;;64.97;43.00;;;29.20;99.90;;;;;;5057266;28;20028;-62
2022/04/26 15:37:45;;;;;;;72.95;45.90;;;29.10;99.90;;;;;;5069959;28;20025;-62
2022/04/26 15:40:12;;;;;;;73.75;48.78;;;29.10;99.90;;;;;;5061422;28;20035;-64
2022/04/26 15:42:39;;;;;;;79.35;48.67;;;29.10;99.90;;;;;;5065178;28;20036;-63
2022/04/26 15:45:06;;;;;;;76.82;49.33;;;29.00;99.90;;;;;;5062575;28;20060;-64
2022/04/26 15:47:35;;;;;;;78.03;46.25;;;29.00;99.90;;;;;;5066543;28;20045;-63
2022/04/26 15:50:02;;;;;;;81.63;48.70;;;29.10;99.90;;;;;;5061704;28;20492;-62
2022/04/26 15:52:29;;;;;;;78.93;48.95;;;29.10;99.90;;;;;;5064040;28;20485;-63
2022/04/26 15:54:55;;;;;;;80.38;50.58;;;29.10;99.90;;;;;;5072027;28;20369;-64
2022/04/26 15:57:22;;;;;;;80.55;49.47;;;29.00;99.90;;;;;;5057465;28;20040;-62
2022/04/26 15:59:48;;;;;;;79.20;51.28;;;29.00;99.90;;;;;;5069377;28;20036;-63
2022/04/26 16:02:16;;;;;;;85.05;46.50;;;29.00;99.90;;;;;;5061583;28;20026;-62
2022/04/26 16:04:43;;;;;;;80.10;46.58;;;29.10;99.90;;;;;;5070619;28;20032;-63
2022/04/26 16:07:10;;;;;;;80.10;44.97;;;29.00;99.90;;;;;;5074099;28;20032;-65
2022/04/26 16:22:16;;;;;;;64.57;42.38;;;28.90;99.90;;;;;;5066416;28;20021;-63
2022/04/26 16:24:43;;;;;;;83.03;47.63;;;28.90;99.90;;;;;;5061676;28;20029;-63
2022/04/26 16:27:09;;;;;;;79.20;49.47;;;28.90;99.90;;;;;;5068995;28;20086;-63
2022/04/26 16:29:36;;;;;;;88.25;51.95;;;28.90;99.90;;;;;;5069479;28;20029;-63
2022/04/26 16:32:03;;;;;;;87.00;53.42;;;28.90;99.90;;;;;;5066803;28;20147;-63
2022/04/26 16:34:30;;;;;;;98.07;53.33;;;28.90;99.90;;;;;;5073148;28;20021;-63
2022/04/26 16:36:56;;;;;;;90.45;53.10;;;28.90;99.90;;;;;;5073254;28;20032;-63
2022/04/26 16:39:23;;;;;;;88.53;51.63;;;28.90;99.90;;;;;;5072117;28;20028;-64
2022/04/26 16:41:50;;;;;;;87.90;51.75;;;28.90;99.90;;;;;;5061613;28;20085;-63
2022/04/26 16:44:17;;;;;;;86.93;48.95;;;28.90;99.90;;;;;;5076744;28;20021;-63
2022/04/26 16:46:43;;;;;;;97.32;54.80;;;28.80;99.90;;;;;;5066863;28;20457;-63
2022/04/26 16:49:10;;;;;;;93.97;55.42;;;28.80;99.90;;;;;;5057324;28;20401;-64
2022/04/26 16:51:37;;;;;;;96.75;53.95;;;28.80;99.90;;;;;;5076916;28;20258;-64
2022/04/26 16:54:04;;;;;;;97.35;55.33;;;28.80;99.90;;;;;;5076810;28;20048;-64
2022/04/26 16:56:32;;;;;;;91.95;54.53;;;28.80;99.90;;;;;;5072326;28;20413;-64